Terminal Aerodrome Forecast
Issued by NWS

Home | Current Version | Previous Version | Text Only | Print | Product List | Glossary On
Versions: 1 2 3 4 5 6 7 8 9 10 11 12 13 14 15 16 17 18 19 20 21
000
FTUS46 KLOX 192300
TAFPRB
TAF
KPRB 192339Z 2000/2024 20012KT P6SM SCT030
     FM200300 20008KT P6SM SKC
     FM201100 VRB03KT P6SM BKN015
     FM201700 VRB03KT P6SM SKC
     FM202100 21010KT P6SM SCT250=

USA.gov is the U.S. government's official web portal to all federal, state and local government web resources and services.